createdAt,value
2022-09-06T00:00:44.999Z,18.08
2022-09-06T00:03:11.759Z,18.02
2022-09-06T00:05:39.109Z,17.84
2022-09-06T00:08:06.730Z,17.71
2022-09-06T00:10:34.385Z,17.79
2022-09-06T00:13:06.083Z,17.78
2022-09-06T00:15:33.972Z,17.58
2022-09-06T00:18:06.659Z,17.64
2022-09-06T00:20:34.873Z,17.86
2022-09-06T00:23:04.363Z,17.96
2022-09-06T00:25:31.686Z,17.88
2022-09-06T00:28:00.647Z,17.93
2022-09-06T00:30:28.886Z,17.78
2022-09-06T00:32:56.603Z,17.75
2022-09-06T00:35:27.116Z,17.81
2022-09-06T00:37:59.240Z,17.81
2022-09-06T00:40:26.863Z,17.85
2022-09-06T00:42:53.622Z,17.92
2022-09-06T00:45:20.979Z,17.76
2022-09-06T00:47:48.110Z,17.67
2022-09-06T00:50:17.866Z,17.75
2022-09-06T00:52:47.652Z,17.80
2022-09-06T00:55:15.195Z,17.72
2022-09-06T00:57:42.403Z,17.68
2022-09-06T01:00:10.142Z,17.60
2022-09-06T01:02:37.010Z,17.38
2022-09-06T01:05:05.606Z,17.46
2022-09-06T01:07:38.384Z,17.63
2022-09-06T01:10:20.283Z,17.66
2022-09-06T01:12:58.844Z,17.50
2022-09-06T01:15:42.655Z,17.42
2022-09-06T01:18:28.201Z,17.58
2022-09-06T01:21:10.669Z,17.61
2022-09-06T01:23:59.260Z,17.62
2022-09-06T01:26:44.668Z,17.58
2022-09-06T01:29:22.401Z,17.49
2022-09-06T01:31:57.022Z,17.64
2022-09-06T01:34:47.961Z,17.61
2022-09-06T01:37:19.954Z,17.66
2022-09-06T01:39:46.730Z,17.55
2022-09-06T01:42:22.163Z,17.51
2022-09-06T01:44:54.488Z,17.56
2022-09-06T01:47:36.422Z,17.49
2022-09-06T01:50:08.934Z,17.67
2022-09-06T01:52:40.847Z,17.61
2022-09-06T01:55:17.039Z,17.20
2022-09-06T01:58:07.059Z,17.73
2022-09-06T02:00:43.168Z,17.48
2022-09-06T02:03:24.703Z,17.50
2022-09-06T02:05:56.214Z,17.22
2022-09-06T02:08:29.927Z,17.43
2022-09-06T02:11:01.701Z,17.48
2022-09-06T02:13:38.732Z,17.27
2022-09-06T02:16:08.175Z,17.24
2022-09-06T02:18:47.910Z,17.24
2022-09-06T02:21:18.563Z,17.49
2022-09-06T02:23:47.667Z,17.05
2022-09-06T02:26:19.129Z,17.51
2022-09-06T02:28:46.190Z,17.37
2022-09-06T02:31:22.504Z,17.56
2022-09-06T02:33:51.191Z,17.62
2022-09-06T02:36:18.871Z,17.52
2022-09-06T02:38:46.435Z,17.50
2022-09-06T02:41:16.128Z,17.43
2022-09-06T02:43:43.714Z,17.57
2022-09-06T02:46:11.110Z,17.58
2022-09-06T02:48:37.841Z,17.25
2022-09-06T02:51:09.248Z,17.51
2022-09-06T02:53:36.622Z,17.48
2022-09-06T02:56:03.913Z,17.59
2022-09-06T02:58:31.221Z,17.51
2022-09-06T03:00:58.032Z,17.40
2022-09-06T03:03:25.142Z,17.44
2022-09-06T03:05:53.366Z,17.37
2022-09-06T03:08:22.253Z,17.61
2022-09-06T03:10:54.511Z,17.71
2022-09-06T03:13:21.382Z,17.58
2022-09-06T03:15:52.725Z,17.48
2022-09-06T03:18:20.188Z,17.50
2022-09-06T03:20:49.991Z,17.59
2022-09-06T03:23:18.042Z,17.64
2022-09-06T03:25:44.997Z,17.75
2022-09-06T03:28:12.949Z,17.65
2022-09-06T03:30:40.297Z,17.57
2022-09-06T03:33:07.420Z,17.37
2022-09-06T03:35:34.204Z,17.29
2022-09-06T03:38:00.971Z,17.23
2022-09-06T03:40:27.795Z,17.51
2022-09-06T03:42:54.640Z,17.57
2022-09-06T03:45:21.483Z,17.37
2022-09-06T03:47:48.135Z,17.30
2022-09-06T03:50:14.923Z,17.51
2022-09-06T03:52:41.659Z,17.58
2022-09-06T03:55:08.916Z,17.36
2022-09-06T03:57:35.702Z,17.37
2022-09-06T04:00:02.718Z,17.09
2022-09-06T04:02:29.444Z,17.40
2022-09-06T04:04:56.183Z,17.35
2022-09-06T04:07:23.624Z,17.51
2022-09-06T04:09:50.310Z,17.29
2022-09-06T04:12:17.115Z,17.48
2022-09-06T04:14:43.796Z,17.65
2022-09-06T04:17:10.605Z,17.63
2022-09-06T04:19:37.255Z,17.62
2022-09-06T04:22:03.970Z,17.65
2022-09-06T04:24:30.647Z,17.65
2022-09-06T04:26:57.315Z,17.61
2022-09-06T04:29:24.806Z,17.59
2022-09-06T04:31:51.566Z,17.51
2022-09-06T04:34:19.830Z,17.64
2022-09-06T04:36:48.418Z,17.58
2022-09-06T04:39:15.448Z,17.62
2022-09-06T04:41:42.757Z,17.80
2022-09-06T04:44:09.505Z,17.83
2022-09-06T04:46:36.350Z,17.75
2022-09-06T04:49:03.554Z,17.82
2022-09-06T04:51:31.703Z,17.70
2022-09-06T04:53:58.419Z,17.88
2022-09-06T04:56:26.886Z,17.77
2022-09-06T04:58:55.515Z,17.72
2022-09-06T05:01:22.812Z,17.86
2022-09-06T05:03:50.351Z,17.56
2022-09-06T05:06:21.517Z,17.69
2022-09-06T05:08:49.145Z,17.75
2022-09-06T05:11:16.688Z,17.91
2022-09-06T05:13:43.401Z,17.68
2022-09-06T05:16:10.460Z,17.65
2022-09-06T05:18:37.244Z,17.61
2022-09-06T05:21:04.558Z,17.73
2022-09-06T05:23:31.229Z,17.45
2022-09-06T05:25:57.920Z,17.48
2022-09-06T05:28:24.787Z,17.48
2022-09-06T05:30:51.588Z,17.33
2022-09-06T05:33:22.922Z,17.79
2022-09-06T05:35:50.246Z,17.77
2022-09-06T05:38:17.010Z,17.36
2022-09-06T05:40:43.992Z,17.47
2022-09-06T05:43:10.821Z,17.50
2022-09-06T05:45:37.693Z,17.45
2022-09-06T05:48:04.852Z,17.65
2022-09-06T05:50:31.641Z,17.49
2022-09-06T05:52:58.459Z,17.45
2022-09-06T05:55:25.543Z,17.58
2022-09-06T05:57:52.257Z,17.60
2022-09-06T06:00:19.200Z,17.52
2022-09-06T06:02:49.999Z,17.28
2022-09-06T06:05:17.049Z,17.53
2022-09-06T06:07:43.788Z,17.34
2022-09-06T06:10:11.018Z,17.58
2022-09-06T06:12:37.984Z,17.70
2022-09-06T06:15:05.889Z,17.62
2022-09-06T06:17:33.271Z,17.65
2022-09-06T06:20:00.312Z,17.61
2022-09-06T06:22:27.514Z,17.72
2022-09-06T06:24:54.211Z,17.54
2022-09-06T06:27:20.901Z,17.59
2022-09-06T06:29:47.620Z,17.53
2022-09-06T06:32:14.470Z,17.63
2022-09-06T06:34:41.211Z,17.64
2022-09-06T06:37:07.889Z,17.51
2022-09-06T06:39:34.768Z,17.55
2022-09-06T06:42:01.555Z,17.43
2022-09-06T06:44:28.530Z,17.63
2022-09-06T06:46:58.042Z,17.42
2022-09-06T06:49:25.399Z,17.47
2022-09-06T06:51:52.128Z,17.53
2022-09-06T06:54:18.943Z,17.32
2022-09-06T06:56:46.054Z,17.51
2022-09-06T06:59:12.891Z,17.38
2022-09-06T07:01:39.994Z,17.41
2022-09-06T07:04:08.956Z,17.50
2022-09-06T07:12:24.166Z,17.30
2022-09-06T07:14:51.176Z,17.22
2022-09-06T07:17:17.905Z,17.34
2022-09-06T07:22:31.463Z,17.59
2022-09-06T07:24:58.454Z,17.42
2022-09-06T07:30:14.589Z,17.48
2022-09-06T07:32:41.350Z,17.41
2022-09-06T07:35:08.676Z,17.59
2022-09-06T07:37:35.656Z,17.53
2022-09-06T07:40:03.597Z,17.55
2022-09-06T07:42:36.413Z,17.74
2022-09-06T07:45:03.825Z,17.90
2022-09-06T07:55:34.083Z,17.87
2022-09-06T07:58:00.871Z,17.73
2022-09-06T08:00:28.168Z,17.60
2022-09-06T08:02:55.011Z,17.80
2022-09-06T08:10:56.048Z,18.11
2022-09-06T08:13:23.081Z,18.16
2022-09-06T08:15:50.478Z,18.30
2022-09-06T08:18:17.686Z,18.43
2022-09-06T08:20:44.606Z,18.47
2022-09-06T08:23:11.399Z,18.52
2022-09-06T08:25:38.176Z,18.56
2022-09-06T08:28:05.136Z,18.26
2022-09-06T08:30:33.479Z,18.37
2022-09-06T08:33:00.349Z,18.15
2022-09-06T08:40:49.108Z,18.34
2022-09-06T08:43:20.685Z,18.07
2022-09-06T08:45:56.655Z,17.77
2022-09-06T08:48:28.865Z,18.21
2022-09-06T08:51:07.028Z,18.06
2022-09-06T08:53:39.665Z,17.83
2022-09-06T08:56:17.141Z,17.89
2022-09-06T08:59:06.697Z,17.70
2022-09-06T09:02:09.163Z,17.61
2022-09-06T09:04:42.387Z,17.65
2022-09-06T09:07:48.078Z,17.61
2022-09-06T09:10:21.700Z,17.62
2022-09-06T09:12:50.273Z,17.43
2022-09-06T09:15:19.521Z,17.49
2022-09-06T09:17:49.479Z,17.22
2022-09-06T09:20:17.239Z,17.41
2022-09-06T09:22:44.819Z,17.55
2022-09-06T09:25:23.382Z,17.34
2022-09-06T09:27:57.925Z,17.42
2022-09-06T09:33:23.210Z,17.62
2022-09-06T09:35:50.776Z,17.41
2022-09-06T09:38:27.605Z,17.49
2022-09-06T09:41:00.502Z,17.58
2022-09-06T09:43:30.775Z,17.49
2022-09-06T09:46:30.595Z,17.24
2022-09-06T09:49:05.842Z,17.56
2022-09-06T09:51:45.052Z,17.41
2022-09-06T09:54:15.066Z,17.44
2022-09-06T09:56:47.560Z,17.58
2022-09-06T09:59:27.489Z,17.59
2022-09-06T10:02:04.435Z,17.63
2022-09-06T10:04:43.935Z,17.57
2022-09-06T10:07:21.035Z,17.11
2022-09-06T10:10:03.409Z,17.31
2022-09-06T10:12:42.129Z,17.55
2022-09-06T10:17:54.418Z,17.48
2022-09-06T10:20:24.753Z,17.43
2022-09-06T10:26:09.419Z,17.29
2022-09-06T10:28:46.320Z,17.70
2022-09-06T10:40:49.160Z,17.81
2022-09-06T10:46:17.457Z,17.67
2022-09-06T10:48:49.888Z,17.67
2022-09-06T10:51:52.897Z,17.61
2022-09-06T11:06:13.655Z,17.47
2022-09-06T11:09:07.775Z,17.61
2022-09-06T11:11:47.612Z,17.73
2022-09-06T11:14:15.783Z,17.60
2022-09-06T11:16:51.384Z,17.65
2022-09-06T11:19:33.215Z,17.78
2022-09-06T11:22:18.336Z,17.81
2022-09-06T11:25:18.510Z,17.66
2022-09-06T11:27:51.690Z,17.73
2022-09-06T11:30:21.324Z,17.56
2022-09-06T11:33:03.678Z,17.63
2022-09-06T11:35:32.965Z,17.56
2022-09-06T11:38:03.709Z,17.56
2022-09-06T11:40:38.520Z,17.54
2022-09-06T11:43:05.172Z,17.70
2022-09-06T11:45:50.374Z,17.58
2022-09-06T11:48:34.462Z,17.77
2022-09-06T11:51:06.687Z,17.80
2022-09-06T11:53:59.347Z,17.82
2022-09-06T11:56:44.780Z,17.40
2022-09-06T11:59:23.788Z,17.69
2022-09-06T12:01:56.597Z,17.78
2022-09-06T12:04:24.309Z,17.69
2022-09-06T12:07:12.187Z,17.76
2022-09-06T12:09:44.139Z,17.69
2022-09-06T12:12:16.192Z,17.38
2022-09-06T12:14:48.286Z,17.41
2022-09-06T12:17:14.954Z,17.63
2022-09-06T12:19:55.475Z,17.65
2022-09-06T12:22:34.161Z,17.63
2022-09-06T12:25:02.029Z,17.55
2022-09-06T12:27:35.387Z,17.50
2022-09-06T12:30:07.055Z,17.51
2022-09-06T12:32:38.358Z,17.34
2022-09-06T12:38:00.102Z,17.41
2022-09-06T12:40:30.700Z,17.16
2022-09-06T12:42:58.402Z,17.25
2022-09-06T12:45:27.619Z,17.50
2022-09-06T12:48:10.786Z,17.42
2022-09-06T12:50:37.971Z,17.20
2022-09-06T12:53:22.686Z,17.43
2022-09-06T12:56:04.327Z,17.29
2022-09-06T12:58:31.139Z,17.44
2022-09-06T13:01:10.320Z,17.12
2022-09-06T13:03:50.839Z,17.56
2022-09-06T13:06:26.622Z,17.37
2022-09-06T13:08:57.340Z,17.17
2022-09-06T13:11:38.703Z,17.42
2022-09-06T13:14:23.209Z,17.51
2022-09-06T13:16:52.494Z,17.58
2022-09-06T13:19:31.896Z,17.57
2022-09-06T13:21:59.555Z,17.53
2022-09-06T13:24:46.342Z,17.61
2022-09-06T13:27:36.789Z,17.63
2022-09-06T13:49:55.455Z,17.42
2022-09-06T13:52:24.558Z,17.44
2022-09-06T13:54:51.728Z,17.43
2022-09-06T14:05:28.828Z,17.54
2022-09-06T14:21:21.778Z,17.74
2022-09-06T15:39:17.035Z,18.19
2022-09-06T15:41:45.716Z,18.13
2022-09-06T15:47:04.198Z,18.18
2022-09-06T16:14:13.978Z,17.75
2022-09-06T16:16:42.352Z,17.54
2022-09-06T16:19:10.585Z,17.52
2022-09-06T16:21:40.129Z,17.66
2022-09-06T16:24:09.645Z,17.53
2022-09-06T16:26:39.722Z,17.61
2022-09-06T16:29:08.486Z,17.48
2022-09-06T16:31:40.052Z,17.33
2022-09-06T16:34:08.081Z,17.43
2022-09-06T16:36:35.144Z,17.45
2022-09-06T16:39:02.156Z,17.29
2022-09-06T16:41:36.409Z,17.48
2022-09-06T16:44:03.267Z,17.50
2022-09-06T16:46:30.208Z,17.50
2022-09-06T16:49:01.649Z,17.79
2022-09-06T16:51:29.880Z,17.54
2022-09-06T16:53:57.086Z,17.52
2022-09-06T16:56:26.909Z,17.91
2022-09-06T16:58:56.315Z,17.73
2022-09-06T17:01:25.632Z,18.09
2022-09-06T17:03:52.950Z,17.64
2022-09-06T17:19:54.366Z,17.18
2022-09-06T17:38:28.611Z,17.32
2022-09-06T18:27:14.047Z,16.67
2022-09-06T18:43:39.935Z,17.42
2022-09-06T18:46:09.668Z,17.66
2022-09-06T18:48:38.436Z,17.38
2022-09-06T18:51:11.646Z,17.58
2022-09-06T18:53:44.467Z,17.36
2022-09-06T18:56:12.373Z,17.56
2022-09-06T18:58:39.430Z,17.55
2022-09-06T19:01:12.507Z,17.60
2022-09-06T19:03:39.982Z,17.61
2022-09-06T19:06:20.988Z,17.43
2022-09-06T19:08:48.736Z,17.44
2022-09-06T19:11:18.091Z,17.42
2022-09-06T19:13:46.694Z,17.71
2022-09-06T19:16:14.139Z,17.53
2022-09-06T19:18:41.447Z,17.73
2022-09-06T19:21:09.499Z,17.62
2022-09-06T19:23:38.992Z,17.67
2022-09-06T19:26:08.179Z,17.70
2022-09-06T19:28:36.069Z,17.62
2022-09-06T19:31:18.982Z,17.44
2022-09-06T19:33:47.464Z,17.63
2022-09-06T19:36:15.171Z,17.66
2022-09-06T19:39:01.876Z,17.62
2022-09-06T19:41:30.826Z,17.49
2022-09-06T19:43:58.625Z,17.46
2022-09-06T19:46:26.831Z,17.37
2022-09-06T19:48:56.191Z,17.64
2022-09-06T19:51:24.088Z,17.75
2022-09-06T19:53:55.952Z,17.76
2022-09-06T19:56:26.808Z,17.50
2022-09-06T19:58:56.023Z,17.56
2022-09-06T20:01:25.277Z,17.58
2022-09-06T20:03:52.875Z,17.70
2022-09-06T20:06:19.788Z,17.70
2022-09-06T20:08:50.682Z,17.64
2022-09-06T20:11:18.468Z,17.59
2022-09-06T20:13:45.596Z,17.63
2022-09-06T20:16:13.295Z,17.44
2022-09-06T20:18:40.607Z,17.46
2022-09-06T20:21:08.234Z,17.66
2022-09-06T20:23:35.539Z,17.52
2022-09-06T20:26:03.578Z,17.68
2022-09-06T20:28:30.809Z,17.79
2022-09-06T20:31:06.646Z,17.59
2022-09-06T20:33:34.107Z,17.44
2022-09-06T20:36:03.952Z,17.58
2022-09-06T20:38:35.853Z,17.74
2022-09-06T20:41:04.816Z,17.60
2022-09-06T20:43:34.588Z,17.62
2022-09-06T20:46:04.340Z,17.38
2022-09-06T20:48:42.129Z,17.53
2022-09-06T20:51:13.939Z,17.53
2022-09-06T20:53:40.884Z,17.52
2022-09-06T20:56:16.017Z,17.54
2022-09-06T20:58:47.195Z,17.58
2022-09-06T21:01:15.949Z,17.13
2022-09-06T21:03:43.128Z,17.15
2022-09-06T21:06:12.462Z,17.19
2022-09-06T21:08:42.873Z,17.00
2022-09-06T21:11:12.864Z,16.96
2022-09-06T21:13:40.096Z,16.91
2022-09-06T21:16:07.696Z,17.06
2022-09-06T21:18:35.648Z,17.02
2022-09-06T21:21:05.931Z,17.04
2022-09-06T21:23:38.456Z,17.08
2022-09-06T21:26:10.381Z,17.15
2022-09-06T21:28:39.907Z,17.51
2022-09-06T21:31:09.922Z,17.39
2022-09-06T21:33:39.251Z,17.34
2022-09-06T21:36:08.321Z,17.53
2022-09-06T21:38:37.155Z,17.44
2022-09-06T21:41:05.628Z,17.61
2022-09-06T21:43:35.707Z,17.47
2022-09-06T21:46:11.376Z,17.43
2022-09-06T21:48:39.587Z,17.38
2022-09-06T21:51:13.186Z,17.37
2022-09-06T21:53:43.514Z,17.59
2022-09-06T21:56:13.862Z,17.49
2022-09-06T21:58:40.634Z,17.33
2022-09-06T22:01:08.606Z,17.13
2022-09-06T22:03:37.175Z,17.23
2022-09-06T22:06:15.129Z,17.26
2022-09-06T22:08:43.919Z,17.00
2022-09-06T22:11:11.745Z,17.03
2022-09-06T22:13:38.945Z,16.72
2022-09-06T22:16:08.005Z,16.61
2022-09-06T22:18:35.912Z,16.84
2022-09-06T22:21:05.676Z,16.96
2022-09-06T22:23:32.551Z,16.64
2022-09-06T22:26:05.124Z,17.14
2022-09-06T22:28:31.944Z,16.94
2022-09-06T22:30:58.864Z,16.78
2022-09-06T22:33:25.711Z,16.84
2022-09-06T22:35:52.821Z,16.85
2022-09-06T22:38:20.330Z,16.86
2022-09-06T22:40:47.018Z,16.93
2022-09-06T22:43:15.129Z,16.93
2022-09-06T22:45:43.651Z,17.01
2022-09-06T22:48:10.439Z,16.99
2022-09-06T22:50:37.272Z,16.84
2022-09-06T22:53:04.078Z,16.66
2022-09-06T22:55:33.300Z,16.83
2022-09-06T22:58:00.259Z,17.05
2022-09-06T23:00:29.914Z,16.94
2022-09-06T23:02:56.975Z,16.99
2022-09-06T23:05:23.788Z,16.77
2022-09-06T23:07:51.271Z,16.99
2022-09-06T23:10:18.506Z,17.34
2022-09-06T23:12:45.255Z,17.25
2022-09-06T23:15:12.169Z,17.27
2022-09-06T23:17:39.026Z,17.30
2022-09-06T23:20:06.154Z,17.27
2022-09-06T23:22:33.281Z,17.43
2022-09-06T23:24:59.988Z,17.39
2022-09-06T23:27:26.687Z,17.30
2022-09-06T23:29:53.664Z,17.15
2022-09-06T23:32:20.384Z,17.33
2022-09-06T23:34:47.093Z,17.04
2022-09-06T23:37:13.783Z,16.85
2022-09-06T23:39:40.528Z,16.62
2022-09-06T23:42:07.377Z,16.75
2022-09-06T23:44:34.051Z,16.88
2022-09-06T23:47:00.885Z,17.05
2022-09-06T23:49:27.687Z,16.86
2022-09-06T23:51:54.399Z,16.69
2022-09-06T23:54:21.115Z,16.83
2022-09-06T23:56:47.883Z,16.96
2022-09-06T23:59:14.678Z,16.94
